createdAt,value
2022-09-06T00:01:16.241Z,8.56
2022-09-06T00:03:44.307Z,8.62
2022-09-06T00:06:13.647Z,8.50
2022-09-06T00:08:41.371Z,8.56
2022-09-06T00:11:08.941Z,8.58
2022-09-06T00:13:36.501Z,8.62
2022-09-06T00:16:12.358Z,8.66
2022-09-06T00:18:39.365Z,8.63
2022-09-06T00:21:20.049Z,8.58
2022-09-06T00:23:46.875Z,8.49
2022-09-06T00:26:13.668Z,8.49
2022-09-06T00:28:42.315Z,8.47
2022-09-06T00:31:20.997Z,8.49
2022-09-06T00:33:48.318Z,8.48
2022-09-06T00:36:15.534Z,8.43
2022-09-06T00:38:42.321Z,8.44
2022-09-06T00:41:11.859Z,8.50
2022-09-06T00:43:39.275Z,8.52
2022-09-06T00:46:08.472Z,8.54
2022-09-06T00:48:37.702Z,8.43
2022-09-06T00:51:08.171Z,8.58
2022-09-06T00:53:34.945Z,8.54
2022-09-06T00:56:02.148Z,8.56
2022-09-06T00:58:30.088Z,8.65
2022-09-06T01:00:57.122Z,8.63
2022-09-06T01:03:27.226Z,8.71
2022-09-06T01:06:12.596Z,8.76
2022-09-06T01:08:42.151Z,8.76
2022-09-06T01:11:34.848Z,8.76
2022-09-06T01:14:45.893Z,8.74
2022-09-06T01:17:30.867Z,8.72
2022-09-06T01:20:27.613Z,8.73
2022-09-06T01:23:34.205Z,8.73
2022-09-06T01:26:31.558Z,8.76
2022-09-06T01:28:59.001Z,8.76
2022-09-06T01:31:25.774Z,8.81
2022-09-06T01:34:11.425Z,8.75
2022-09-06T01:37:08.333Z,8.75
2022-09-06T01:39:37.248Z,8.74
2022-09-06T01:42:07.387Z,8.72
2022-09-06T01:44:37.429Z,8.74
2022-09-06T01:47:09.815Z,8.72
2022-09-06T01:49:46.668Z,8.57
2022-09-06T01:52:25.824Z,8.72
2022-09-06T01:54:58.551Z,8.73
2022-09-06T01:57:57.587Z,8.67
2022-09-06T02:00:26.466Z,8.66
2022-09-06T02:03:12.817Z,8.72
2022-09-06T02:05:46.546Z,8.73
2022-09-06T02:08:19.103Z,8.66
2022-09-06T02:10:59.236Z,8.77
2022-09-06T02:13:32.293Z,8.67
2022-09-06T02:16:02.956Z,8.69
2022-09-06T02:18:44.282Z,8.73
2022-09-06T02:21:15.523Z,8.72
2022-09-06T02:23:44.328Z,8.73
2022-09-06T02:26:20.693Z,8.80
2022-09-06T02:28:47.932Z,8.77
2022-09-06T02:31:29.275Z,8.77
2022-09-06T02:33:56.888Z,8.75
2022-09-06T02:36:24.294Z,8.77
2022-09-06T02:38:51.173Z,8.71
2022-09-06T02:41:22.775Z,8.84
2022-09-06T02:43:49.912Z,8.91
2022-09-06T02:46:17.623Z,8.86
2022-09-06T02:48:44.272Z,8.90
2022-09-06T02:51:10.932Z,8.92
2022-09-06T02:53:38.595Z,9.03
2022-09-06T02:56:05.479Z,9.12
2022-09-06T02:58:32.692Z,9.17
2022-09-06T03:01:00.280Z,9.16
2022-09-06T03:03:27.642Z,9.17
2022-09-06T03:05:55.081Z,9.16
2022-09-06T03:08:25.863Z,9.00
2022-09-06T03:10:56.668Z,9.20
2022-09-06T03:13:24.714Z,9.24
2022-09-06T03:15:53.616Z,9.26
2022-09-06T03:18:20.594Z,9.25
2022-09-06T03:20:49.698Z,9.21
2022-09-06T03:23:17.337Z,9.29
2022-09-06T03:25:44.685Z,9.23
2022-09-06T03:28:12.924Z,9.33
2022-09-06T03:30:40.684Z,9.28
2022-09-06T03:33:07.464Z,9.31
2022-09-06T03:35:34.138Z,9.34
2022-09-06T03:38:01.631Z,9.33
2022-09-06T03:40:28.341Z,9.30
2022-09-06T03:42:55.049Z,9.24
